Time;durP1;ratioP1;P1;durP2;ratioP2;P2;SDS_P1;SDS_P2;PMS_P1;PMS_P2;Temp;Humidity;BMP_temperature;BMP_pressure;BME280_temperature;BME280_humidity;BME280_pressure;Samples;Min_cycle;Max_cycle;Signal;HPM_P1;HPM_P2
2022/01/02 00:02:22;;;;;;;6.20;2.05;;;;;;;19.62;60.94;101712.06;4967510;28;20047;-84
2022/01/02 00:04:48;;;;;;;6.07;2.10;;;;;;;19.62;60.58;101703.25;4951606;28;20054;-84
2022/01/02 00:07:15;;;;;;;6.50;2.20;;;;;;;19.60;60.63;101698.03;4951484;28;20400;-84
2022/01/02 00:09:45;;;;;;;5.50;2.08;;;;;;;19.61;60.29;101689.06;4967922;28;20032;-83
2022/01/02 00:12:13;;;;;;;5.25;2.13;;;;;;;19.59;60.33;101676.88;4951377;28;20445;-84
2022/01/02 00:14:44;;;;;;;4.97;1.85;;;;;;;19.57;60.01;101678.81;4952062;29;20164;-83
2022/01/02 00:17:09;;;;;;;;;;;;;;;19.54;60.11;101671.91;4936068;28;20054;-83
2022/01/02 00:19:38;;;;;;;4.47;1.85;;;;;;;19.54;60.26;101677.22;4967867;28;19922;-83
2022/01/02 00:22:04;;;;;;;4.70;1.95;;;;;;;19.52;60.03;101679.16;4951410;28;20042;-83
2022/01/02 00:24:30;;;;;;;4.88;2.13;;;;;;;19.50;60.96;101681.13;4953068;28;20058;-83
2022/01/02 00:26:57;;;;;;;4.45;2.03;;;;;;;19.50;60.90;101677.63;4951138;28;20047;-83
2022/01/02 00:29:22;;;;;;;5.13;2.15;;;;;;;19.49;60.06;101679.44;4950802;28;20047;-83
2022/01/02 00:31:47;;;;;;;7.07;2.17;;;;;;;19.49;60.22;101681.22;4967691;28;20050;-83
2022/01/02 00:34:13;;;;;;;6.43;2.30;;;;;;;19.49;60.62;101687.44;4967109;28;20043;-83
2022/01/02 00:36:38;;;;;;;5.47;1.90;;;;;;;19.47;60.20;101681.38;4967282;28;20130;-83
2022/01/02 00:39:06;;;;;;;5.28;2.30;;;;;;;19.50;60.32;101691.75;4951167;28;20126;-84
2022/01/02 00:41:43;;;;;;;6.78;1.80;;;;;;;19.46;60.19;101674.38;4935557;29;20681;-83
2022/01/02 00:44:17;;;;;;;7.13;2.22;;;;;;;19.47;59.93;101664.56;4950455;28;20043;-83
2022/01/02 00:46:52;;;;;;;5.35;1.83;;;;;;;19.47;60.10;101660.06;4967522;28;20059;-83
2022/01/02 00:49:24;;;;;;;5.57;1.88;;;;;;;19.46;59.97;101647.75;4950991;28;20550;-83
2022/01/02 00:51:53;;;;;;;5.15;2.00;;;;;;;19.45;59.92;101637.22;4935961;29;20086;-83
2022/01/02 00:54:20;;;;;;;5.28;2.00;;;;;;;19.45;60.09;101624.75;4950797;28;20130;-83
2022/01/02 00:56:46;;;;;;;4.85;2.08;;;;;;;19.42;59.97;101636.47;4935024;29;20074;-82
2022/01/02 00:59:44;;;;;;;5.25;1.95;;;;;;;19.41;60.43;101640.13;4966776;28;20512;-83
2022/01/02 01:02:10;;;;;;;4.97;1.80;;;;;;;19.42;60.32;101630.31;4944344;28;20126;-82
2022/01/02 01:04:35;;;;;;;4.75;1.90;;;;;;;19.42;60.22;101635.66;4937843;28;20070;-83
2022/01/02 01:07:04;;;;;;;6.20;2.25;;;;;;;19.40;59.52;101627.81;4970979;28;20039;-83
2022/01/02 01:09:30;;;;;;;5.95;2.42;;;;;;;19.44;59.75;101623.06;4971409;28;20039;-83
2022/01/02 01:12:00;;;;;;;4.70;1.83;;;;;;;19.40;60.00;101616.31;4939403;29;20054;-82
2022/01/02 01:14:26;;;;;;;4.57;1.73;;;;;;;19.39;59.72;101598.63;4951832;29;20066;-82
2022/01/02 01:16:52;;;;;;;5.50;2.00;;;;;;;19.40;59.87;101603.84;4934703;29;20657;-82
2022/01/02 01:19:18;;;;;;;3.85;1.63;;;;;;;19.40;59.41;101587.03;4951369;29;20054;-83
2022/01/02 01:21:43;;;;;;;6.97;2.30;;;;;;;19.39;60.11;101593.31;4934730;29;20047;-82
2022/01/02 01:24:08;;;;;;;5.43;1.90;;;;;;;19.40;59.64;101589.72;4950156;28;20051;-82
2022/01/02 01:26:34;;;;;;;6.85;2.30;;;;;;;19.37;59.86;101595.28;4946564;28;20050;-83
2022/01/02 01:29:00;;;;;;;4.90;2.00;;;;;;;19.39;59.93;101595.97;4970260;28;20488;-83
2022/01/02 01:31:25;;;;;;;4.18;1.90;;;;;;;19.38;59.79;101584.50;4952933;28;20043;-83
2022/01/02 01:33:51;;;;;;;4.95;2.20;;;;;;;19.37;59.82;101582.81;4953871;28;20048;-84
2022/01/02 01:36:16;;;;;;;5.70;1.85;;;;;;;19.38;59.67;101581.00;4953113;28;20570;-84
2022/01/02 01:38:42;;;;;;;4.20;1.88;;;;;;;19.34;59.72;101571.59;4969430;28;20415;-84
2022/01/02 01:41:14;;;;;;;4.35;1.75;;;;;;;19.35;59.48;101574.09;4952906;28;20072;-84
2022/01/02 01:43:52;;;;;;;4.60;2.05;;;;;;;19.32;59.72;101570.84;4953277;28;20035;-84
2022/01/02 01:46:18;;;;;;;5.30;1.83;;;;;;;19.34;59.78;101560.94;4965259;28;20047;-84
2022/01/02 01:48:51;;;;;;;5.47;1.88;;;;;;;19.33;59.93;101552.09;4946025;28;20377;-83
2022/01/02 01:51:16;;;;;;;5.05;2.00;;;;;;;19.32;59.51;101549.56;4949296;28;20067;-83
2022/01/02 01:53:42;;;;;;;4.10;1.75;;;;;;;19.32;59.76;101538.94;4949960;28;20393;-83
2022/01/02 01:56:07;;;;;;;6.47;1.98;;;;;;;19.31;59.26;101547.91;4934950;28;20462;-83
2022/01/02 01:58:32;;;;;;;3.83;1.70;;;;;;;19.29;59.59;101547.16;4937269;28;20492;-83
2022/01/02 02:00:58;;;;;;;7.15;1.90;;;;;;;19.28;59.88;101549.00;4949878;28;20043;-83
2022/01/02 02:03:23;;;;;;;5.00;1.80;;;;;;;19.27;59.77;101551.75;4949670;28;20500;-83
2022/01/02 02:05:49;;;;;;;4.03;1.70;;;;;;;19.28;59.26;101548.16;4955481;28;20436;-83
2022/01/02 02:08:14;;;;;;;4.72;2.00;;;;;;;19.28;59.17;101537.50;4950502;29;20399;-83
2022/01/02 02:10:41;;;;;;;4.53;1.85;;;;;;;19.23;60.03;101524.56;4954230;28;20051;-83
2022/01/02 02:13:07;;;;;;;4.13;1.73;;;;;;;19.25;59.15;101527.97;4936400;28;20043;-84
2022/01/02 02:15:32;;;;;;;5.40;2.08;;;;;;;19.25;59.51;101508.50;4933884;29;20522;-84
2022/01/02 02:17:58;;;;;;;4.18;1.70;;;;;;;19.25;59.22;101509.34;4933594;29;20424;-84
2022/01/02 02:20:29;;;;;;;5.43;2.20;;;;;;;19.26;59.43;101513.66;4923107;28;20042;-84
2022/01/02 02:22:55;;;;;;;4.60;1.88;;;;;;;19.25;59.43;101511.16;4971826;28;20050;-83
2022/01/02 02:25:37;;;;;;;4.68;2.00;;;;;;;19.22;59.91;101487.47;4967488;28;20069;-84
2022/01/02 02:28:06;;;;;;;6.45;1.98;;;;;;;19.24;59.36;101490.81;4983928;28;20046;-84
2022/01/02 02:30:33;;;;;;;6.80;2.10;;;;;;;19.23;59.63;101491.81;4943161;28;20573;-84
2022/01/02 02:32:59;;;;;;;5.35;1.75;;;;;;;19.21;59.60;101497.28;4968272;28;20047;-84
2022/01/02 02:35:25;;;;;;;3.85;1.63;;;;;;;19.19;59.50;101485.91;4967909;28;20054;-84
2022/01/02 02:37:51;;;;;;;3.97;1.70;;;;;;;19.19;59.19;101481.41;4968788;28;20042;-84
2022/01/02 02:40:18;;;;;;;5.65;1.75;;;;;;;19.21;59.29;101469.78;4984302;28;20051;-84
2022/01/02 02:42:55;;;;;;;5.38;2.00;;;;;;;19.21;59.14;101464.47;4968735;28;20046;-84
2022/01/02 02:51:11;;;;;;;5.00;2.00;;;;;;;19.18;59.08;101446.97;4981658;28;20046;-84
2022/01/02 02:53:42;;;;;;;6.30;2.20;;;;;;;19.18;58.79;101436.34;4984433;28;20049;-84
2022/01/02 02:56:17;;;;;;;4.68;1.60;;;;;;;19.17;59.29;101438.13;4958032;28;20531;-84
2022/01/02 02:58:43;;;;;;;4.38;1.65;;;;;;;19.16;59.63;101446.25;4968259;28;20066;-84
2022/01/02 03:01:10;;;;;;;5.57;1.90;;;;;;;19.15;59.25;101407.34;4951758;28;20047;-84
2022/01/02 03:03:36;;;;;;;4.88;2.00;;;;;;;19.18;59.41;101421.22;4968101;28;20078;-84
2022/01/02 03:06:01;;;;;;;4.60;1.90;;;;;;;19.17;59.29;101434.63;4932155;29;20047;-84
2022/01/02 03:08:27;;;;;;;3.97;2.00;;;;;;;19.13;58.72;101434.06;4933078;29;20071;-83
2022/01/02 03:10:52;;;;;;;4.40;1.73;;;;;;;19.14;59.21;101438.38;4935113;29;20181;-83
2022/01/02 03:13:18;;;;;;;3.97;1.55;;;;;;;19.16;59.19;101444.44;4966810;28;20070;-83
2022/01/02 03:15:43;;;;;;;4.50;1.60;;;;;;;19.15;59.03;101436.59;4952371;28;20443;-82
2022/01/02 03:18:09;;;;;;;3.53;1.35;;;;;;;19.15;59.38;101445.41;4969340;28;20140;-81
2022/01/02 03:20:34;;;;;;;4.70;1.63;;;;;;;19.12;58.69;101432.38;4952523;28;20546;-82
2022/01/02 03:23:00;;;;;;;4.80;1.55;;;;;;;19.10;58.94;101426.34;4952450;28;20051;-82
2022/01/02 03:25:25;;;;;;;4.55;1.80;;;;;;;19.11;59.07;101421.84;4944342;29;20087;-82
2022/01/02 03:27:50;;;;;;;6.20;1.90;;;;;;;19.10;58.94;101418.34;4948820;28;20621;-82
2022/01/02 03:30:16;;;;;;;8.15;2.00;;;;;;;19.10;59.49;101407.72;4948216;28;20075;-82
2022/01/02 03:32:41;;;;;;;5.32;1.63;;;;;;;19.12;58.94;101400.47;4950008;29;20503;-83
2022/01/02 03:35:07;;;;;;;3.33;1.40;;;;;;;19.09;59.11;101381.25;4931814;29;20079;-83
2022/01/02 03:37:33;;;;;;;4.43;1.50;;;;;;;19.07;59.17;101375.22;4948662;28;20483;-82
2022/01/02 03:40:03;;;;;;;4.90;1.83;;;;;;;19.08;58.82;101391.03;4948716;28;20061;-82
2022/01/02 03:42:29;;;;;;;4.63;2.08;;;;;;;19.04;59.15;101381.63;4949675;29;20055;-83
2022/01/02 03:44:57;;;;;;;5.68;1.75;;;;;;;19.06;58.68;101381.53;4948551;28;20399;-82
2022/01/02 03:47:22;;;;;;;5.95;1.48;;;;;;;19.09;58.86;101398.06;4949230;29;20118;-82
2022/01/02 03:49:48;;;;;;;6.50;1.85;;;;;;;19.08;58.85;101376.91;4932711;29;20388;-83
2022/01/02 03:52:13;;;;;;;4.78;1.63;;;;;;;19.07;59.12;101381.38;4948199;28;20039;-83
2022/01/02 03:54:39;;;;;;;7.20;2.45;;;;;;;19.06;58.43;101370.88;4946579;29;20500;-83
2022/01/02 03:57:04;;;;;;;4.57;1.55;;;;;;;19.05;59.25;101356.72;4926447;29;20584;-84
2022/01/02 03:59:30;;;;;;;6.45;1.65;;;;;;;19.04;59.17;101371.00;4945426;28;20044;-85
2022/01/02 04:01:55;;;;;;;4.45;1.83;;;;;;;19.05;58.57;101364.69;4929225;29;20050;-84
2022/01/02 04:04:21;;;;;;;4.53;1.50;;;;;;;19.10;59.08;101354.53;4938803;28;20093;-84
2022/01/02 04:06:46;;;;;;;5.93;2.15;;;;;;;19.08;58.86;101356.47;4986796;28;20495;-84
2022/01/02 04:09:11;;;;;;;6.95;1.70;;;;;;;19.06;58.59;101357.59;4970427;28;20054;-84
2022/01/02 04:11:37;;;;;;;4.93;1.70;;;;;;;19.04;58.94;101347.06;4971157;28;20485;-84
2022/01/02 04:14:02;;;;;;;5.68;2.00;;;;;;;19.05;58.77;101348.75;4947557;29;20090;-85
2022/01/02 04:16:28;;;;;;;3.92;1.67;;;;;;;19.06;58.80;101347.78;4932072;28;20055;-85
2022/01/02 04:18:53;;;;;;;4.93;1.35;;;;;;;19.07;58.43;101346.81;4934241;28;20047;-85
2022/01/02 04:21:18;;;;;;;5.00;1.70;;;;;;;19.06;58.44;101329.16;4951093;29;20464;-84
2022/01/02 04:23:44;;;;;;;3.35;1.45;;;;;;;19.05;58.46;101331.94;4919959;29;20049;-84
2022/01/02 04:26:09;;;;;;;3.70;1.58;;;;;;;19.06;58.23;101326.50;4954237;28;20069;-84
2022/01/02 04:28:35;;;;;;;3.72;1.80;;;;;;;19.05;58.62;101321.31;4938963;28;20097;-84
2022/01/02 04:31:00;;;;;;;3.60;1.27;;;;;;;19.05;58.71;101314.16;4971123;28;20043;-85
2022/01/02 04:33:26;;;;;;;5.80;1.70;;;;;;;19.04;58.67;101307.19;4944380;28;20530;-84
2022/01/02 04:35:51;;;;;;;4.07;1.60;;;;;;;19.03;58.43;101305.50;4991700;28;20039;-84
2022/01/02 04:38:17;;;;;;;5.90;1.50;;;;;;;19.03;58.53;101297.53;4989719;28;20097;-84
2022/01/02 04:40:42;;;;;;;5.88;1.90;;;;;;;19.04;58.96;101288.56;4990229;28;20438;-84
2022/01/02 04:43:08;;;;;;;2.90;1.33;;;;;;;19.03;58.39;101294.03;4989530;28;20034;-84
2022/01/02 04:45:33;;;;;;;4.03;1.40;;;;;;;18.99;58.57;101281.94;4990107;28;20630;-84
2022/01/02 04:47:59;;;;;;;5.22;1.42;;;;;;;19.01;59.25;101278.19;4973824;28;20048;-84
2022/01/02 04:50:24;;;;;;;4.93;1.50;;;;;;;19.01;58.67;101286.16;4956716;28;20085;-84
2022/01/02 04:52:50;;;;;;;5.38;1.80;;;;;;;19.01;58.65;101283.50;4973568;28;20042;-83
2022/01/02 04:55:15;;;;;;;4.63;1.60;;;;;;;18.97;59.07;101267.97;4965501;28;20097;-83
2022/01/02 04:57:41;;;;;;;5.15;1.50;;;;;;;18.99;58.75;101273.97;4964736;28;20411;-83
2022/01/02 05:00:07;;;;;;;4.78;1.80;;;;;;;18.99;58.80;101261.53;4989059;28;20133;-82
2022/01/02 05:02:33;;;;;;;5.00;1.40;;;;;;;19.02;58.97;101257.75;4989853;28;20062;-82
2022/01/02 05:04:58;;;;;;;5.45;1.40;;;;;;;19.01;58.50;101253.41;4990509;28;20050;-82
2022/01/02 05:07:24;;;;;;;6.28;2.10;;;;;;;19.00;58.38;101247.25;4973245;28;20058;-81
2022/01/02 05:09:49;;;;;;;5.07;1.50;;;;;;;18.95;59.12;101255.63;4989805;28;20039;-82
2022/01/02 05:12:14;;;;;;;5.00;1.40;;;;;;;18.96;58.86;101253.81;4972977;28;20038;-82
2022/01/02 05:14:40;;;;;;;4.85;1.50;;;;;;;19.01;58.65;101242.78;4971519;28;20054;-81
2022/01/02 05:17:05;;;;;;;4.32;1.50;;;;;;;19.00;58.07;101249.91;4970835;28;20043;-83
2022/01/02 05:19:31;;;;;;;3.08;1.40;;;;;;;18.97;58.63;101238.72;4953888;28;20455;-82
2022/01/02 05:21:57;;;;;;;4.07;1.50;;;;;;;18.97;58.65;101234.22;4953863;28;20403;-84
2022/01/02 05:24:22;;;;;;;5.25;2.15;;;;;;;18.97;58.42;101233.41;4953230;28;20066;-83
2022/01/02 05:26:48;;;;;;;4.32;1.55;;;;;;;18.95;58.45;101221.06;4969659;28;20043;-84
2022/01/02 05:29:15;;;;;;;4.90;1.67;;;;;;;18.95;58.81;101212.25;4952954;28;20073;-84
2022/01/02 05:31:40;;;;;;;4.63;1.52;;;;;;;18.93;58.87;101207.06;4953891;28;20142;-84
2022/01/02 05:34:06;;;;;;;4.97;1.50;;;;;;;18.92;58.61;101197.38;4952919;28;20558;-84
2022/01/02 05:36:31;;;;;;;4.65;1.50;;;;;;;18.92;58.66;101207.19;4953613;28;20038;-84
2022/01/02 05:38:56;;;;;;;4.88;1.50;;;;;;;18.92;58.46;101207.19;4953319;28;20074;-83
2022/01/02 05:41:22;;;;;;;5.90;1.33;;;;;;;18.91;58.24;101195.72;4969127;28;20065;-83
2022/01/02 05:43:47;;;;;;;5.35;1.42;;;;;;;18.90;58.55;101186.06;4985873;28;20050;-83
2022/01/02 05:46:14;;;;;;;4.32;1.45;;;;;;;18.92;58.70;101183.25;4985458;28;20047;-83
2022/01/02 05:48:40;;;;;;;5.45;1.70;;;;;;;18.89;58.15;101175.53;4969598;28;20424;-83
2022/01/02 05:51:05;;;;;;;4.65;1.63;;;;;;;18.91;58.88;101177.09;4970375;28;20050;-82
2022/01/02 05:53:31;;;;;;;6.65;1.52;;;;;;;18.92;58.07;101172.63;4970925;28;20377;-83
2022/01/02 05:55:56;;;;;;;4.38;1.60;;;;;;;18.91;58.92;101162.97;4970605;28;20047;-83
2022/01/02 05:58:22;;;;;;;6.18;1.60;;;;;;;18.88;58.37;101164.06;4970242;28;20109;-83
2022/01/02 06:00:47;;;;;;;4.07;1.58;;;;;;;18.86;58.48;101154.53;4968529;28;20042;-83
2022/01/02 06:03:13;;;;;;;3.30;1.50;;;;;;;18.86;58.60;101147.41;4974630;28;20054;-83
2022/01/02 06:05:38;;;;;;;4.60;1.25;;;;;;;18.87;58.48;101148.28;4971652;28;20050;-82
2022/01/02 06:08:04;;;;;;;5.65;1.63;;;;;;;18.89;58.83;101159.59;4971551;28;20121;-82
2022/01/02 06:10:29;;;;;;;3.55;1.30;;;;;;;18.87;58.50;101143.78;4985065;28;20563;-82
2022/01/02 06:12:55;;;;;;;5.93;1.73;;;;;;;18.85;58.08;101134.25;4952735;28;20039;-82
2022/01/02 06:15:20;;;;;;;6.05;1.48;;;;;;;18.85;58.77;101135.09;4952499;28;20145;-82
2022/01/02 06:17:45;;;;;;;4.25;1.60;;;;;;;18.85;58.54;101127.13;4968946;28;20491;-82
2022/01/02 06:20:11;;;;;;;4.10;1.45;;;;;;;18.85;57.95;101123.63;4952502;28;20213;-83
2022/01/02 06:22:36;;;;;;;4.45;1.70;;;;;;;18.86;58.32;101120.00;4969072;28;20045;-82
2022/01/02 06:25:02;;;;;;;3.92;1.38;;;;;;;18.84;58.06;101106.84;4975521;28;20046;-82
2022/01/02 06:27:27;;;;;;;4.50;1.70;;;;;;;18.83;58.43;101106.97;4989575;28;20041;-82
2022/01/02 06:29:53;;;;;;;4.47;1.55;;;;;;;18.85;58.00;101111.19;4988226;28;20085;-82
2022/01/02 06:32:18;;;;;;;4.60;2.30;;;;;;;18.82;58.56;101110.59;4986454;28;20076;-82
2022/01/02 06:34:46;;;;;;;3.90;1.50;;;;;;;18.82;58.82;101105.28;4984700;28;20049;-82
2022/01/02 06:37:11;;;;;;;4.13;1.48;;;;;;;18.87;58.32;101095.09;4968058;28;20043;-83
2022/01/02 06:39:37;;;;;;;3.92;1.45;;;;;;;18.89;58.48;101090.47;4969492;28;20038;-84
2022/01/02 06:42:03;;;;;;;3.83;1.60;;;;;;;18.94;58.39;101083.78;4968564;28;20047;-84
2022/01/02 06:44:28;;;;;;;3.65;1.52;;;;;;;18.96;58.47;101083.66;4968143;28;20480;-84
2022/01/02 06:46:54;;;;;;;4.00;1.40;;;;;;;19.00;58.35;101087.72;4969662;28;20437;-83
2022/01/02 06:49:19;;;;;;;4.47;1.45;;;;;;;19.01;58.68;101077.94;4951674;28;20039;-84
2022/01/02 06:51:44;;;;;;;4.22;1.40;;;;;;;19.02;58.65;101080.47;4969414;28;20051;-82
2022/01/02 06:54:10;;;;;;;5.25;1.48;;;;;;;19.02;57.93;101075.16;4967697;28;20050;-82
2022/01/02 06:56:35;;;;;;;5.05;1.50;;;;;;;19.08;58.03;101079.06;4970467;28;20121;-82
2022/01/02 06:59:01;;;;;;;3.65;1.30;;;;;;;19.17;58.25;101068.44;4968126;28;20050;-84
2022/01/02 07:01:26;;;;;;;6.10;1.70;;;;;;;19.16;58.27;101065.94;4966392;28;20058;-83
2022/01/02 07:03:51;;;;;;;6.03;1.70;;;;;;;19.19;57.93;101060.31;4969800;28;20439;-84
2022/01/02 07:06:17;;;;;;;5.30;1.38;;;;;;;19.29;58.06;101069.16;4969034;28;20507;-84
2022/01/02 07:08:42;;;;;;;6.47;1.55;;;;;;;19.32;57.76;101066.22;4950507;28;20137;-84
2022/01/02 07:11:10;;;;;;;3.67;1.38;;;;;;;19.29;58.32;101063.00;4968315;28;20066;-84
2022/01/02 07:13:35;;;;;;;3.42;1.42;;;;;;;19.31;58.50;101061.88;4968688;28;20042;-83
2022/01/02 07:16:01;;;;;;;4.00;1.20;;;;;;;19.36;58.07;101061.47;4943046;28;20491;-84
2022/01/02 07:18:26;;;;;;;3.83;1.35;;;;;;;19.40;57.63;101055.75;4932112;29;20504;-84
2022/01/02 07:20:51;;;;;;;4.28;1.50;;;;;;;19.48;57.77;101051.53;4948349;28;20043;-85
2022/01/02 07:23:17;;;;;;;4.43;1.40;;;;;;;19.52;57.07;101069.72;4948788;28;20488;-84
2022/01/02 07:25:42;;;;;;;5.97;1.48;;;;;;;19.55;57.14;101074.75;4949634;28;20054;-85
2022/01/02 07:28:08;;;;;;;4.13;1.30;;;;;;;19.60;56.99;101069.88;4948497;28;20041;-84
2022/01/02 07:30:33;;;;;;;4.38;1.23;;;;;;;19.60;57.67;101069.88;4932766;28;20055;-84
2022/01/02 07:33:02;;;;;;;8.13;1.50;;;;;;;19.57;57.96;101070.16;4936748;29;20488;-85
2022/01/02 07:35:30;;;;;;;3.95;1.30;;;;;;;19.62;57.17;101078.56;4969271;28;20043;-84
2022/01/02 07:37:57;;;;;;;4.63;1.50;;;;;;;19.63;57.45;101063.44;4968303;28;20035;-84
2022/01/02 07:40:22;;;;;;;5.13;1.50;;;;;;;19.62;57.98;101073.25;4967727;28;20062;-84
2022/01/02 07:42:48;;;;;;;3.13;1.30;;;;;;;19.65;57.62;101072.16;4968649;28;20102;-84
2022/01/02 07:45:13;;;;;;;4.70;1.45;;;;;;;19.66;57.67;101068.50;4967667;28;20126;-84
2022/01/02 07:47:39;;;;;;;4.28;1.17;;;;;;;19.66;57.56;101060.53;4968020;28;20531;-84
2022/01/02 07:50:05;;;;;;;5.25;1.10;;;;;;;19.68;57.28;101063.03;4951375;28;20050;-85
2022/01/02 07:52:31;;;;;;;8.90;1.85;;;;;;;19.69;57.47;101057.56;4967302;28;20070;-84
2022/01/02 07:54:56;;;;;;;3.38;1.23;;;;;;;19.68;57.22;101049.72;4972116;28;20439;-84
2022/01/02 07:57:22;;;;;;;4.80;1.42;;;;;;;19.68;58.04;101049.72;4972532;28;20046;-83
2022/01/02 07:59:47;;;;;;;5.00;1.60;;;;;;;19.67;58.42;101045.38;4972548;28;20138;-84
2022/01/02 08:02:13;;;;;;;4.90;1.42;;;;;;;19.67;58.21;101058.69;4971100;28;20101;-85
2022/01/02 08:04:38;;;;;;;5.75;1.73;;;;;;;19.63;58.95;101042.97;4951672;28;20407;-84
2022/01/02 08:07:04;;;;;;;4.80;1.60;;;;;;;19.68;57.77;101049.72;4962062;28;20038;-84
2022/01/02 08:09:29;;;;;;;5.15;1.58;;;;;;;19.71;58.19;101038.78;4952295;28;20050;-83
2022/01/02 08:11:54;;;;;;;6.38;1.63;;;;;;;19.69;58.03;101041.59;4952362;29;20079;-84
2022/01/02 08:14:21;;;;;;;9.55;1.98;;;;;;;19.68;58.74;101029.28;4952472;28;20062;-84
2022/01/02 08:16:47;;;;;;;5.47;1.58;;;;;;;19.63;58.88;101024.34;4936987;28;20050;-84
2022/01/02 08:19:12;;;;;;;4.07;1.40;;;;;;;19.69;58.80;101025.63;4968255;28;20416;-83
2022/01/02 08:21:39;;;;;;;5.03;1.60;;;;;;;19.65;58.66;101029.56;4967696;28;20510;-85
2022/01/02 08:24:05;;;;;;;4.80;1.38;;;;;;;19.61;59.11;101038.78;4952791;28;20070;-84
2022/01/02 08:26:30;;;;;;;6.15;1.80;;;;;;;19.57;59.57;101051.53;4925224;29;20110;-84
2022/01/02 08:29:00;;;;;;;5.43;1.55;;;;;;;19.55;58.96;101044.66;4948547;28;20039;-85
2022/01/02 08:31:25;;;;;;;6.68;2.00;;;;;;;19.53;58.80;101031.50;4933466;29;20135;-84
2022/01/02 08:33:51;;;;;;;5.60;1.80;;;;;;;19.58;59.19;101012.44;4947526;28;20049;-84
2022/01/02 08:36:16;;;;;;;9.15;2.10;;;;;;;19.63;57.82;101016.38;4941108;28;20497;-84
2022/01/02 08:38:42;;;;;;;6.88;2.17;;;;;;;19.63;58.81;101026.19;4948948;28;20528;-84
2022/01/02 08:41:07;;;;;;;5.72;1.60;;;;;;;19.55;59.40;101018.03;4947183;28;20054;-84
2022/01/02 08:43:34;;;;;;;5.18;1.75;;;;;;;19.52;58.93;101018.31;4948261;28;20043;-84
2022/01/02 08:45:59;;;;;;;6.75;1.98;;;;;;;19.53;59.50;101020.88;4944177;28;20043;-84
2022/01/02 08:48:25;;;;;;;7.07;1.90;;;;;;;19.50;59.28;101020.31;4918085;29;20044;-84
2022/01/02 08:50:51;;;;;;;6.70;2.05;;;;;;;19.49;59.02;101022.13;4966800;28;20048;-84
2022/01/02 08:53:17;;;;;;;7.72;2.00;;;;;;;19.49;58.81;101024.78;4933834;29;20064;-84
2022/01/02 08:55:42;;;;;;;7.50;1.67;;;;;;;19.49;58.74;101011.50;4950602;28;20057;-84
2022/01/02 08:58:08;;;;;;;4.43;1.58;;;;;;;19.47;59.42;101026.75;4959372;28;20047;-85
2022/01/02 09:00:34;;;;;;;5.60;1.92;;;;;;;19.49;59.10;101014.16;4961595;28;20044;-84
2022/01/02 09:02:59;;;;;;;7.32;1.80;;;;;;;19.50;59.13;101021.16;4948071;28;20043;-84
2022/01/02 09:05:26;;;;;;;6.13;1.92;;;;;;;19.48;59.00;101015.09;4962499;28;20152;-85
2022/01/02 09:07:52;;;;;;;6.03;1.70;;;;;;;19.48;59.48;101016.94;4961184;28;20131;-87
2022/01/02 09:10:18;;;;;;;6.30;2.10;;;;;;;19.44;58.85;101024.38;4922688;28;20142;-85
2022/01/02 09:12:44;;;;;;;5.25;1.98;;;;;;;19.42;59.13;101031.63;4932294;28;20131;-84
2022/01/02 09:15:10;;;;;;;7.45;2.13;;;;;;;19.45;58.97;101022.53;4929883;28;20048;-83
2022/01/02 09:17:35;;;;;;;6.88;2.00;;;;;;;19.45;58.91;101031.34;4931894;28;20079;-84
2022/01/02 09:20:01;;;;;;;6.90;2.13;;;;;;;19.44;58.71;101042.16;4915830;28;20098;-86
2022/01/02 09:22:26;;;;;;;5.63;2.00;;;;;;;19.46;58.31;101022.41;4915649;28;20047;-84
2022/01/02 09:24:53;;;;;;;6.35;1.83;;;;;;;19.52;58.43;101029.81;4932942;28;20044;-84
2022/01/02 09:27:18;;;;;;;7.50;2.00;;;;;;;19.54;58.87;101019.88;4941796;28;20111;-84
2022/01/02 09:29:44;;;;;;;6.18;2.17;;;;;;;19.51;58.51;101028.13;4947954;28;20091;-84
2022/01/02 09:32:09;;;;;;;5.45;1.70;;;;;;;19.51;58.25;101038.78;4947121;28;20047;-84
2022/01/02 09:34:35;;;;;;;6.32;1.83;;;;;;;19.48;58.65;101022.25;4948039;28;20071;-84
2022/01/02 09:37:01;;;;;;;5.97;2.10;;;;;;;19.47;58.15;101017.94;4931588;28;20032;-84
2022/01/02 09:39:27;;;;;;;6.97;1.88;;;;;;;19.48;59.13;101044.38;4915332;28;20590;-84
2022/01/02 09:41:53;;;;;;;8.98;2.42;;;;;;;19.48;58.97;101040.88;4948123;28;20071;-84
2022/01/02 09:44:18;;;;;;;5.45;2.00;;;;;;;19.49;58.25;101053.19;4932108;28;20115;-84
2022/01/02 09:46:44;;;;;;;10.20;3.20;;;;;;;19.50;58.73;101057.56;4947855;28;20543;-84
2022/01/02 09:49:09;;;;;;;8.55;2.10;;;;;;;19.49;58.32;101059.38;4928571;28;20406;-84
2022/01/02 09:51:35;;;;;;;6.40;2.10;;;;;;;19.49;58.47;101047.88;4933627;28;20517;-84
2022/01/02 09:54:00;;;;;;;5.65;2.42;;;;;;;19.52;58.34;101060.91;4962410;28;20051;-85
2022/01/02 09:56:26;;;;;;;8.63;2.20;;;;;;;19.50;58.09;101058.41;4931090;28;20103;-84
2022/01/02 09:58:53;;;;;;;6.68;2.30;;;;;;;19.50;58.53;101054.91;4931262;28;20307;-84
2022/01/02 10:01:20;;;;;;;7.22;2.35;;;;;;;19.52;58.14;101061.72;4943754;28;20078;-84
2022/01/02 10:03:47;;;;;;;6.97;2.40;;;;;;;19.53;58.58;101059.94;4951983;28;20400;-84
2022/01/02 10:06:13;;;;;;;8.10;2.35;;;;;;;19.52;57.74;101059.06;4968754;28;20047;-84
2022/01/02 10:08:38;;;;;;;7.28;2.03;;;;;;;19.49;58.19;101062.03;4954051;28;20043;-84
2022/01/02 10:11:17;;;;;;;5.90;2.08;;;;;;;19.51;57.56;101068.06;4951171;28;20093;-84
2022/01/02 10:13:44;;;;;;;7.85;2.20;;;;;;;19.50;57.86;101055.72;4970001;28;20051;-84
2022/01/02 10:16:30;;;;;;;5.65;2.10;;;;;;;19.47;58.56;101066.66;4967419;28;20412;-84
2022/01/02 10:18:56;;;;;;;4.90;2.00;;;;;;;19.54;57.97;101057.13;4968960;28;20043;-84
2022/01/02 10:21:37;;;;;;;9.93;2.67;;;;;;;19.31;56.34;101037.94;4968784;28;20404;-83
2022/01/02 10:24:12;;;;;;;10.43;2.80;;;;;;;19.39;57.68;101061.19;4972302;28;20046;-84
2022/01/02 10:26:37;;;;;;;9.10;2.40;;;;;;;19.46;58.14;101050.81;4970305;28;20492;-84
2022/01/02 10:29:10;;;;;;;8.73;2.28;;;;;;;19.51;57.36;101065.38;4969504;28;20117;-84
2022/01/02 10:31:35;;;;;;;8.18;2.63;;;;;;;19.40;57.54;101033.63;4969593;28;20043;-84
2022/01/02 10:34:00;;;;;;;9.55;2.60;;;;;;;19.42;58.14;101052.91;4961334;28;20047;-85
2022/01/02 10:36:37;;;;;;;8.57;2.60;;;;;;;19.40;57.57;101042.44;4968987;28;20043;-85
2022/01/02 10:39:06;;;;;;;10.25;2.70;;;;;;;19.48;58.02;101052.38;4952348;28;20043;-84
2022/01/02 10:41:33;;;;;;;7.97;2.30;;;;;;;19.55;57.97;101047.31;4952131;28;20074;-83
2022/01/02 10:44:35;;;;;;;8.18;2.47;;;;;;;19.52;58.76;101051.09;4969726;28;20043;-83
2022/01/02 10:47:11;;;;;;;7.60;2.22;;;;;;;19.57;59.02;101058.66;4959776;28;20081;-84
2022/01/02 10:49:55;;;;;;;6.57;2.40;;;;;;;19.60;59.45;101059.22;4965566;28;20081;-84
2022/01/02 10:52:32;;;;;;;7.85;2.80;;;;;;;19.61;59.78;101057.41;4963702;28;20054;-85
2022/01/02 10:54:59;;;;;;;10.68;2.80;;;;;;;19.58;59.15;101069.16;4934705;28;20050;-83
2022/01/02 10:57:25;;;;;;;8.07;2.58;;;;;;;19.62;58.98;101067.94;4950332;28;20057;-82
2022/01/02 10:59:54;;;;;;;9.75;2.85;;;;;;;19.62;59.55;101062.59;4968095;28;20042;-82
2022/01/02 11:02:19;;;;;;;9.75;2.58;;;;;;;19.62;59.33;101067.09;4966673;28;20134;-82
2022/01/02 11:04:50;;;;;;;8.85;2.83;;;;;;;19.60;59.19;101080.53;4944791;28;20044;-82
2022/01/02 11:07:18;;;;;;;;;;;;;;;19.57;59.54;101064.81;4929959;29;20040;-82
2022/01/02 11:09:43;;;;;;;10.13;2.72;;;;;;;19.56;60.07;101052.50;4945871;28;20201;-82
2022/01/02 11:12:08;;;;;;;12.25;2.80;;;;;;;19.50;58.81;101063.72;4957361;28;20436;-84
2022/01/02 11:14:34;;;;;;;13.57;3.08;;;;;;;19.54;58.90;101075.75;4930403;29;20079;-84
2022/01/02 11:16:59;;;;;;;9.00;2.42;;;;;;;19.60;58.77;101067.22;4948523;29;20579;-84
2022/01/02 11:19:25;;;;;;;14.38;3.28;;;;;;;19.59;59.13;101065.53;4948542;28;20511;-85
2022/01/02 11:21:50;;;;;;;7.88;2.80;;;;;;;19.64;59.20;101070.47;4947198;28;20090;-84
2022/01/02 11:24:18;;;;;;;12.43;3.40;;;;;;;19.64;59.31;101087.25;4941021;29;20046;-83
2022/01/02 11:26:56;;;;;;;11.68;3.15;;;;;;;19.66;59.75;101084.47;4949529;28;20039;-84
2022/01/02 11:29:26;;;;;;;10.18;3.00;;;;;;;19.66;59.82;101081.81;4951935;28;20046;-84